sensor_id;sensor_type;location;lat;lon;timestamp;P1;durP1;ratioP1;P2;durP2;ratioP2
27225;SDS011;14732;51.074;3.788;2023-11-21T00:00:24;49.70;;;21.17;;
27225;SDS011;14732;51.074;3.788;2023-11-21T00:02:49;44.70;;;20.40;;
27225;SDS011;14732;51.074;3.788;2023-11-21T00:05:15;44.95;;;19.50;;
27225;SDS011;14732;51.074;3.788;2023-11-21T00:07:42;47.67;;;20.85;;
27225;SDS011;14732;51.074;3.788;2023-11-21T00:10:08;38.47;;;18.48;;
27225;SDS011;14732;51.074;3.788;2023-11-21T00:12:35;41.28;;;19.35;;
27225;SDS011;14732;51.074;3.788;2023-11-21T00:15:02;52.53;;;20.95;;
27225;SDS011;14732;51.074;3.788;2023-11-21T00:17:30;48.25;;;21.40;;
27225;SDS011;14732;51.074;3.788;2023-11-21T00:19:55;49.90;;;22.73;;
27225;SDS011;14732;51.074;3.788;2023-11-21T00:22:21;47.53;;;21.15;;
27225;SDS011;14732;51.074;3.788;2023-11-21T00:24:47;45.92;;;20.63;;
27225;SDS011;14732;51.074;3.788;2023-11-21T00:27:13;48.28;;;21.55;;
27225;SDS011;14732;51.074;3.788;2023-11-21T00:29:39;44.03;;;20.48;;
27225;SDS011;14732;51.074;3.788;2023-11-21T00:32:05;41.83;;;21.50;;
27225;SDS011;14732;51.074;3.788;2023-11-21T00:34:31;46.33;;;21.10;;
27225;SDS011;14732;51.074;3.788;2023-11-21T00:36:57;43.55;;;21.17;;
27225;SDS011;14732;51.074;3.788;2023-11-21T00:39:23;39.20;;;20.38;;
27225;SDS011;14732;51.074;3.788;2023-11-21T00:41:49;51.92;;;21.63;;
27225;SDS011;14732;51.074;3.788;2023-11-21T00:44:16;40.70;;;18.52;;
27225;SDS011;14732;51.074;3.788;2023-11-21T00:46:41;40.65;;;20.00;;
27225;SDS011;14732;51.074;3.788;2023-11-21T00:49:07;49.25;;;20.77;;
27225;SDS011;14732;51.074;3.788;2023-11-21T00:51:33;44.72;;;20.55;;
27225;SDS011;14732;51.074;3.788;2023-11-21T00:53:59;46.15;;;20.05;;
27225;SDS011;14732;51.074;3.788;2023-11-21T00:56:25;47.67;;;19.83;;
27225;SDS011;14732;51.074;3.788;2023-11-21T00:58:51;40.50;;;19.60;;
27225;SDS011;14732;51.074;3.788;2023-11-21T01:01:18;44.92;;;19.75;;
27225;SDS011;14732;51.074;3.788;2023-11-21T01:03:45;40.95;;;20.30;;
27225;SDS011;14732;51.074;3.788;2023-11-21T01:06:11;33.85;;;19.02;;
27225;SDS011;14732;51.074;3.788;2023-11-21T01:08:37;43.60;;;20.60;;
27225;SDS011;14732;51.074;3.788;2023-11-21T01:11:03;46.35;;;21.48;;
27225;SDS011;14732;51.074;3.788;2023-11-21T01:13:29;49.78;;;20.88;;
27225;SDS011;14732;51.074;3.788;2023-11-21T01:15:55;47.05;;;20.95;;
27225;SDS011;14732;51.074;3.788;2023-11-21T01:18:21;42.72;;;22.05;;
27225;SDS011;14732;51.074;3.788;2023-11-21T01:20:47;44.88;;;21.02;;
27225;SDS011;14732;51.074;3.788;2023-11-21T01:23:13;44.70;;;20.20;;
27225;SDS011;14732;51.074;3.788;2023-11-21T01:25:39;44.17;;;20.90;;
27225;SDS011;14732;51.074;3.788;2023-11-21T01:28:05;45.83;;;20.73;;
27225;SDS011;14732;51.074;3.788;2023-11-21T01:30:31;44.67;;;20.45;;
27225;SDS011;14732;51.074;3.788;2023-11-21T01:32:57;39.53;;;19.27;;
27225;SDS011;14732;51.074;3.788;2023-11-21T01:35:24;43.95;;;20.65;;
27225;SDS011;14732;51.074;3.788;2023-11-21T01:37:49;44.65;;;20.35;;
27225;SDS011;14732;51.074;3.788;2023-11-21T01:40:15;35.30;;;18.00;;
27225;SDS011;14732;51.074;3.788;2023-11-21T01:42:41;38.65;;;19.45;;
27225;SDS011;14732;51.074;3.788;2023-11-21T01:45:08;43.05;;;19.98;;
27225;SDS011;14732;51.074;3.788;2023-11-21T01:47:35;40.42;;;18.38;;
27225;SDS011;14732;51.074;3.788;2023-11-21T01:50:03;42.00;;;19.08;;
27225;SDS011;14732;51.074;3.788;2023-11-21T01:52:32;40.97;;;20.05;;
27225;SDS011;14732;51.074;3.788;2023-11-21T01:54:59;37.22;;;18.85;;
27225;SDS011;14732;51.074;3.788;2023-11-21T01:57:25;35.13;;;18.75;;
27225;SDS011;14732;51.074;3.788;2023-11-21T01:59:51;37.95;;;19.25;;
27225;SDS011;14732;51.074;3.788;2023-11-21T02:02:19;38.03;;;19.08;;
27225;SDS011;14732;51.074;3.788;2023-11-21T02:04:45;37.20;;;18.85;;
27225;SDS011;14732;51.074;3.788;2023-11-21T02:07:11;36.67;;;19.17;;
27225;SDS011;14732;51.074;3.788;2023-11-21T02:09:36;38.58;;;19.65;;
27225;SDS011;14732;51.074;3.788;2023-11-21T02:12:07;38.38;;;18.73;;
27225;SDS011;14732;51.074;3.788;2023-11-21T02:14:35;33.65;;;18.42;;
27225;SDS011;14732;51.074;3.788;2023-11-21T02:17:01;38.50;;;18.20;;
27225;SDS011;14732;51.074;3.788;2023-11-21T02:19:28;40.53;;;19.50;;
27225;SDS011;14732;51.074;3.788;2023-11-21T02:21:56;49.42;;;20.20;;
27225;SDS011;14732;51.074;3.788;2023-11-21T02:24:31;38.35;;;19.02;;
27225;SDS011;14732;51.074;3.788;2023-11-21T02:26:57;44.70;;;20.45;;
27225;SDS011;14732;51.074;3.788;2023-11-21T02:29:22;43.63;;;20.67;;
27225;SDS011;14732;51.074;3.788;2023-11-21T02:31:52;34.55;;;17.90;;
27225;SDS011;14732;51.074;3.788;2023-11-21T02:34:19;35.47;;;19.67;;
27225;SDS011;14732;51.074;3.788;2023-11-21T02:36:46;38.63;;;19.73;;
27225;SDS011;14732;51.074;3.788;2023-11-21T02:39:14;47.92;;;19.88;;
27225;SDS011;14732;51.074;3.788;2023-11-21T02:41:41;41.13;;;19.52;;
27225;SDS011;14732;51.074;3.788;2023-11-21T02:44:08;39.15;;;20.85;;
27225;SDS011;14732;51.074;3.788;2023-11-21T02:46:35;42.53;;;20.45;;
27225;SDS011;14732;51.074;3.788;2023-11-21T02:49:01;43.28;;;20.33;;
27225;SDS011;14732;51.074;3.788;2023-11-21T02:51:28;41.35;;;20.70;;
27225;SDS011;14732;51.074;3.788;2023-11-21T02:53:54;51.20;;;21.67;;
27225;SDS011;14732;51.074;3.788;2023-11-21T02:56:23;45.47;;;21.10;;
27225;SDS011;14732;51.074;3.788;2023-11-21T02:58:52;44.92;;;21.63;;
27225;SDS011;14732;51.074;3.788;2023-11-21T03:01:20;43.00;;;20.73;;
27225;SDS011;14732;51.074;3.788;2023-11-21T03:03:46;43.15;;;21.38;;
27225;SDS011;14732;51.074;3.788;2023-11-21T03:06:15;39.55;;;20.60;;
27225;SDS011;14732;51.074;3.788;2023-11-21T03:08:40;41.33;;;20.48;;
27225;SDS011;14732;51.074;3.788;2023-11-21T03:11:07;42.30;;;20.42;;
27225;SDS011;14732;51.074;3.788;2023-11-21T03:13:33;41.75;;;20.15;;
27225;SDS011;14732;51.074;3.788;2023-11-21T03:15:58;41.15;;;20.70;;
27225;SDS011;14732;51.074;3.788;2023-11-21T03:18:24;49.22;;;20.75;;
27225;SDS011;14732;51.074;3.788;2023-11-21T03:20:51;47.47;;;21.25;;
27225;SDS011;14732;51.074;3.788;2023-11-21T03:23:17;43.25;;;20.80;;
27225;SDS011;14732;51.074;3.788;2023-11-21T03:25:43;46.53;;;20.23;;
27225;SDS011;14732;51.074;3.788;2023-11-21T03:28:09;40.88;;;20.05;;
27225;SDS011;14732;51.074;3.788;2023-11-21T03:30:35;51.40;;;20.58;;
27225;SDS011;14732;51.074;3.788;2023-11-21T03:33:00;43.60;;;20.50;;
27225;SDS011;14732;51.074;3.788;2023-11-21T03:35:26;41.80;;;20.73;;
27225;SDS011;14732;51.074;3.788;2023-11-21T03:37:52;45.13;;;21.02;;
27225;SDS011;14732;51.074;3.788;2023-11-21T03:40:18;40.58;;;19.00;;
27225;SDS011;14732;51.074;3.788;2023-11-21T03:42:45;40.42;;;20.95;;
27225;SDS011;14732;51.074;3.788;2023-11-21T03:45:11;42.97;;;21.02;;
27225;SDS011;14732;51.074;3.788;2023-11-21T03:47:37;44.58;;;20.85;;
27225;SDS011;14732;51.074;3.788;2023-11-21T03:50:03;43.25;;;20.40;;
27225;SDS011;14732;51.074;3.788;2023-11-21T03:52:29;36.97;;;20.67;;
27225;SDS011;14732;51.074;3.788;2023-11-21T03:54:54;38.53;;;20.30;;
27225;SDS011;14732;51.074;3.788;2023-11-21T03:57:20;48.33;;;21.08;;
27225;SDS011;14732;51.074;3.788;2023-11-21T03:59:46;40.55;;;20.25;;
27225;SDS011;14732;51.074;3.788;2023-11-21T04:02:12;42.42;;;20.58;;
27225;SDS011;14732;51.074;3.788;2023-11-21T04:04:38;36.25;;;18.98;;
27225;SDS011;14732;51.074;3.788;2023-11-21T04:07:04;40.78;;;20.45;;
27225;SDS011;14732;51.074;3.788;2023-11-21T04:09:30;35.88;;;19.42;;
27225;SDS011;14732;51.074;3.788;2023-11-21T04:11:55;40.33;;;20.90;;
27225;SDS011;14732;51.074;3.788;2023-11-21T04:14:21;46.03;;;20.52;;
27225;SDS011;14732;51.074;3.788;2023-11-21T04:16:47;38.83;;;18.58;;
27225;SDS011;14732;51.074;3.788;2023-11-21T04:19:13;43.97;;;19.48;;
27225;SDS011;14732;51.074;3.788;2023-11-21T04:21:40;44.92;;;19.42;;
27225;SDS011;14732;51.074;3.788;2023-11-21T04:24:06;37.63;;;19.30;;
27225;SDS011;14732;51.074;3.788;2023-11-21T04:26:32;34.63;;;18.35;;
27225;SDS011;14732;51.074;3.788;2023-11-21T04:28:58;36.70;;;19.27;;
27225;SDS011;14732;51.074;3.788;2023-11-21T04:31:23;44.35;;;20.38;;
27225;SDS011;14732;51.074;3.788;2023-11-21T04:33:49;41.13;;;20.92;;
27225;SDS011;14732;51.074;3.788;2023-11-21T04:36:15;44.92;;;21.70;;
27225;SDS011;14732;51.074;3.788;2023-11-21T04:38:40;52.05;;;22.55;;
27225;SDS011;14732;51.074;3.788;2023-11-21T04:41:06;52.10;;;22.98;;
27225;SDS011;14732;51.074;3.788;2023-11-21T04:43:32;38.50;;;20.63;;
27225;SDS011;14732;51.074;3.788;2023-11-21T04:45:58;41.70;;;20.45;;
27225;SDS011;14732;51.074;3.788;2023-11-21T04:48:23;36.00;;;19.02;;
27225;SDS011;14732;51.074;3.788;2023-11-21T04:50:50;34.70;;;18.80;;
27225;SDS011;14732;51.074;3.788;2023-11-21T04:53:16;33.45;;;18.13;;
27225;SDS011;14732;51.074;3.788;2023-11-21T04:55:42;37.22;;;19.08;;
27225;SDS011;14732;51.074;3.788;2023-11-21T04:58:08;40.03;;;20.60;;
27225;SDS011;14732;51.074;3.788;2023-11-21T05:00:35;38.67;;;19.83;;
27225;SDS011;14732;51.074;3.788;2023-11-21T05:03:01;36.65;;;18.25;;
27225;SDS011;14732;51.074;3.788;2023-11-21T05:05:28;34.92;;;19.02;;
27225;SDS011;14732;51.074;3.788;2023-11-21T05:07:58;41.08;;;19.38;;
27225;SDS011;14732;51.074;3.788;2023-11-21T05:10:24;41.85;;;19.27;;
27225;SDS011;14732;51.074;3.788;2023-11-21T05:12:50;37.85;;;17.98;;
27225;SDS011;14732;51.074;3.788;2023-11-21T05:15:16;40.72;;;18.40;;
27225;SDS011;14732;51.074;3.788;2023-11-21T05:17:44;34.92;;;18.88;;
27225;SDS011;14732;51.074;3.788;2023-11-21T05:20:11;28.98;;;16.95;;
27225;SDS011;14732;51.074;3.788;2023-11-21T05:22:38;35.22;;;18.80;;
27225;SDS011;14732;51.074;3.788;2023-11-21T05:25:05;39.35;;;18.75;;
27225;SDS011;14732;51.074;3.788;2023-11-21T05:27:33;45.50;;;18.58;;
27225;SDS011;14732;51.074;3.788;2023-11-21T05:30:00;33.63;;;16.60;;
27225;SDS011;14732;51.074;3.788;2023-11-21T05:32:27;41.05;;;17.48;;
27225;SDS011;14732;51.074;3.788;2023-11-21T05:34:53;39.95;;;17.58;;
27225;SDS011;14732;51.074;3.788;2023-11-21T05:37:19;38.83;;;18.20;;
27225;SDS011;14732;51.074;3.788;2023-11-21T05:39:44;39.83;;;17.02;;
27225;SDS011;14732;51.074;3.788;2023-11-21T05:42:10;33.17;;;16.23;;
27225;SDS011;14732;51.074;3.788;2023-11-21T05:44:36;42.92;;;17.98;;
27225;SDS011;14732;51.074;3.788;2023-11-21T05:47:02;40.58;;;17.50;;
27225;SDS011;14732;51.074;3.788;2023-11-21T05:49:28;45.05;;;18.27;;
27225;SDS011;14732;51.074;3.788;2023-11-21T05:51:55;46.28;;;17.70;;
27225;SDS011;14732;51.074;3.788;2023-11-21T05:54:21;43.85;;;17.30;;
27225;SDS011;14732;51.074;3.788;2023-11-21T05:56:47;31.92;;;16.35;;
27225;SDS011;14732;51.074;3.788;2023-11-21T05:59:14;41.33;;;17.70;;
27225;SDS011;14732;51.074;3.788;2023-11-21T06:01:39;48.55;;;19.42;;
27225;SDS011;14732;51.074;3.788;2023-11-21T06:04:05;47.13;;;17.50;;
27225;SDS011;14732;51.074;3.788;2023-11-21T06:06:33;49.25;;;18.98;;
27225;SDS011;14732;51.074;3.788;2023-11-21T06:08:58;51.03;;;20.05;;
27225;SDS011;14732;51.074;3.788;2023-11-21T06:11:24;51.50;;;19.13;;
27225;SDS011;14732;51.074;3.788;2023-11-21T06:13:49;57.08;;;20.73;;
27225;SDS011;14732;51.074;3.788;2023-11-21T06:16:15;57.75;;;21.00;;
27225;SDS011;14732;51.074;3.788;2023-11-21T06:18:41;64.05;;;22.05;;
27225;SDS011;14732;51.074;3.788;2023-11-21T06:21:09;60.47;;;21.55;;
27225;SDS011;14732;51.074;3.788;2023-11-21T06:23:35;63.88;;;22.25;;
27225;SDS011;14732;51.074;3.788;2023-11-21T06:26:01;72.43;;;22.60;;
27225;SDS011;14732;51.074;3.788;2023-11-21T06:28:27;73.30;;;23.20;;
27225;SDS011;14732;51.074;3.788;2023-11-21T06:30:53;68.05;;;22.85;;
27225;SDS011;14732;51.074;3.788;2023-11-21T06:33:18;60.78;;;21.20;;
27225;SDS011;14732;51.074;3.788;2023-11-21T06:35:44;65.05;;;21.38;;
27225;SDS011;14732;51.074;3.788;2023-11-21T06:38:10;58.65;;;20.70;;
27225;SDS011;14732;51.074;3.788;2023-11-21T06:40:35;65.95;;;22.75;;
27225;SDS011;14732;51.074;3.788;2023-11-21T06:43:07;72.88;;;23.65;;
27225;SDS011;14732;51.074;3.788;2023-11-21T06:45:33;76.13;;;24.23;;
27225;SDS011;14732;51.074;3.788;2023-11-21T06:48:02;73.07;;;23.40;;
27225;SDS011;14732;51.074;3.788;2023-11-21T06:50:27;73.28;;;24.42;;
27225;SDS011;14732;51.074;3.788;2023-11-21T06:52:53;74.25;;;24.10;;
27225;SDS011;14732;51.074;3.788;2023-11-21T06:55:19;76.63;;;25.25;;
27225;SDS011;14732;51.074;3.788;2023-11-21T06:57:44;78.13;;;23.75;;
27225;SDS011;14732;51.074;3.788;2023-11-21T07:00:11;75.00;;;21.45;;
27225;SDS011;14732;51.074;3.788;2023-11-21T07:02:38;68.15;;;20.17;;
27225;SDS011;14732;51.074;3.788;2023-11-21T07:05:04;56.55;;;19.75;;
27225;SDS011;14732;51.074;3.788;2023-11-21T07:07:30;59.15;;;20.33;;
27225;SDS011;14732;51.074;3.788;2023-11-21T07:09:56;64.40;;;22.27;;
27225;SDS011;14732;51.074;3.788;2023-11-21T07:12:22;63.92;;;20.80;;
27225;SDS011;14732;51.074;3.788;2023-11-21T07:14:49;59.67;;;19.70;;
27225;SDS011;14732;51.074;3.788;2023-11-21T07:17:14;57.22;;;19.30;;
27225;SDS011;14732;51.074;3.788;2023-11-21T07:19:42;61.45;;;19.23;;
27225;SDS011;14732;51.074;3.788;2023-11-21T07:22:08;56.88;;;19.45;;
27225;SDS011;14732;51.074;3.788;2023-11-21T07:24:34;52.13;;;19.60;;
27225;SDS011;14732;51.074;3.788;2023-11-21T07:27:00;57.38;;;19.10;;
27225;SDS011;14732;51.074;3.788;2023-11-21T07:29:26;47.05;;;16.92;;
27225;SDS011;14732;51.074;3.788;2023-11-21T07:31:52;49.25;;;17.05;;
27225;SDS011;14732;51.074;3.788;2023-11-21T07:34:19;55.55;;;17.63;;
27225;SDS011;14732;51.074;3.788;2023-11-21T07:36:45;51.53;;;17.25;;
27225;SDS011;14732;51.074;3.788;2023-11-21T07:39:11;46.17;;;16.20;;
27225;SDS011;14732;51.074;3.788;2023-11-21T07:41:37;49.38;;;17.95;;
27225;SDS011;14732;51.074;3.788;2023-11-21T07:44:09;50.85;;;18.83;;
27225;SDS011;14732;51.074;3.788;2023-11-21T07:46:35;43.83;;;17.55;;
27225;SDS011;14732;51.074;3.788;2023-11-21T07:49:01;52.80;;;19.83;;
27225;SDS011;14732;51.074;3.788;2023-11-21T07:51:26;44.72;;;17.60;;
27225;SDS011;14732;51.074;3.788;2023-11-21T07:53:52;39.45;;;16.40;;
27225;SDS011;14732;51.074;3.788;2023-11-21T07:56:18;36.55;;;15.85;;
27225;SDS011;14732;51.074;3.788;2023-11-21T07:58:43;40.67;;;14.98;;
27225;SDS011;14732;51.074;3.788;2023-11-21T08:01:09;35.15;;;17.33;;
27225;SDS011;14732;51.074;3.788;2023-11-21T08:03:35;37.70;;;18.25;;
27225;SDS011;14732;51.074;3.788;2023-11-21T08:06:01;36.78;;;16.98;;
27225;SDS011;14732;51.074;3.788;2023-11-21T08:08:28;34.33;;;16.85;;
27225;SDS011;14732;51.074;3.788;2023-11-21T08:10:54;34.08;;;18.90;;
27225;SDS011;14732;51.074;3.788;2023-11-21T08:13:23;31.95;;;16.20;;
27225;SDS011;14732;51.074;3.788;2023-11-21T08:18:23;21.30;;;10.85;;
27225;SDS011;14732;51.074;3.788;2023-11-21T08:20:49;22.00;;;10.70;;
27225;SDS011;14732;51.074;3.788;2023-11-21T08:23:15;28.05;;;12.77;;
27225;SDS011;14732;51.074;3.788;2023-11-21T08:25:44;21.45;;;11.48;;
27225;SDS011;14732;51.074;3.788;2023-11-21T08:28:10;21.60;;;11.77;;
27225;SDS011;14732;51.074;3.788;2023-11-21T08:30:37;20.83;;;11.98;;
27225;SDS011;14732;51.074;3.788;2023-11-21T08:33:03;22.20;;;11.30;;
27225;SDS011;14732;51.074;3.788;2023-11-21T08:35:29;24.77;;;12.85;;
27225;SDS011;14732;51.074;3.788;2023-11-21T08:37:55;21.52;;;11.32;;
27225;SDS011;14732;51.074;3.788;2023-11-21T08:40:21;22.08;;;12.07;;
27225;SDS011;14732;51.074;3.788;2023-11-21T08:42:47;22.13;;;11.63;;
27225;SDS011;14732;51.074;3.788;2023-11-21T08:45:16;18.88;;;10.95;;
27225;SDS011;14732;51.074;3.788;2023-11-21T08:47:42;21.05;;;11.38;;
27225;SDS011;14732;51.074;3.788;2023-11-21T08:50:09;23.65;;;13.07;;
27225;SDS011;14732;51.074;3.788;2023-11-21T08:52:37;21.27;;;11.40;;
27225;SDS011;14732;51.074;3.788;2023-11-21T08:55:04;22.35;;;11.32;;
27225;SDS011;14732;51.074;3.788;2023-11-21T08:57:33;19.60;;;11.48;;
27225;SDS011;14732;51.074;3.788;2023-11-21T09:02:30;18.02;;;9.05;;
27225;SDS011;14732;51.074;3.788;2023-11-21T09:04:56;12.65;;;8.30;;
27225;SDS011;14732;51.074;3.788;2023-11-21T09:07:23;12.23;;;7.50;;
27225;SDS011;14732;51.074;3.788;2023-11-21T09:09:49;12.32;;;7.43;;
27225;SDS011;14732;51.074;3.788;2023-11-21T09:12:15;15.43;;;7.93;;
27225;SDS011;14732;51.074;3.788;2023-11-21T09:14:42;15.15;;;9.13;;
27225;SDS011;14732;51.074;3.788;2023-11-21T09:17:09;15.82;;;7.75;;
27225;SDS011;14732;51.074;3.788;2023-11-21T09:19:39;13.70;;;7.13;;
27225;SDS011;14732;51.074;3.788;2023-11-21T09:22:05;11.45;;;6.00;;
27225;SDS011;14732;51.074;3.788;2023-11-21T09:24:31;14.55;;;6.97;;
27225;SDS011;14732;51.074;3.788;2023-11-21T09:26:57;9.70;;;6.13;;
27225;SDS011;14732;51.074;3.788;2023-11-21T09:29:23;14.83;;;7.40;;
27225;SDS011;14732;51.074;3.788;2023-11-21T09:31:48;12.82;;;7.47;;
27225;SDS011;14732;51.074;3.788;2023-11-21T09:34:16;17.58;;;7.65;;
27225;SDS011;14732;51.074;3.788;2023-11-21T09:36:44;15.85;;;8.43;;
27225;SDS011;14732;51.074;3.788;2023-11-21T09:39:10;17.60;;;7.38;;
27225;SDS011;14732;51.074;3.788;2023-11-21T09:41:52;10.57;;;5.75;;
27225;SDS011;14732;51.074;3.788;2023-11-21T09:44:28;11.77;;;4.45;;
27225;SDS011;14732;51.074;3.788;2023-11-21T09:47:02;9.95;;;4.22;;
27225;SDS011;14732;51.074;3.788;2023-11-21T09:49:28;10.60;;;3.85;;
27225;SDS011;14732;51.074;3.788;2023-11-21T09:52:00;6.85;;;3.20;;
27225;SDS011;14732;51.074;3.788;2023-11-21T09:54:30;12.20;;;5.78;;
27225;SDS011;14732;51.074;3.788;2023-11-21T09:56:57;10.02;;;3.47;;
27225;SDS011;14732;51.074;3.788;2023-11-21T09:59:29;5.78;;;3.20;;
27225;SDS011;14732;51.074;3.788;2023-11-21T10:02:00;5.93;;;3.17;;
27225;SDS011;14732;51.074;3.788;2023-11-21T10:04:27;7.57;;;3.15;;
27225;SDS011;14732;51.074;3.788;2023-11-21T10:06:54;10.60;;;3.25;;
27225;SDS011;14732;51.074;3.788;2023-11-21T10:09:20;14.65;;;3.28;;
27225;SDS011;14732;51.074;3.788;2023-11-21T10:11:48;6.22;;;2.85;;
27225;SDS011;14732;51.074;3.788;2023-11-21T10:14:15;6.60;;;2.65;;
27225;SDS011;14732;51.074;3.788;2023-11-21T10:16:44;11.02;;;2.83;;
27225;SDS011;14732;51.074;3.788;2023-11-21T10:19:12;9.40;;;3.40;;
27225;SDS011;14732;51.074;3.788;2023-11-21T10:21:38;14.05;;;6.07;;
27225;SDS011;14732;51.074;3.788;2023-11-21T10:24:05;29.33;;;15.25;;
27225;SDS011;14732;51.074;3.788;2023-11-21T10:26:31;11.98;;;5.03;;
27225;SDS011;14732;51.074;3.788;2023-11-21T10:28:58;16.30;;;5.50;;
27225;SDS011;14732;51.074;3.788;2023-11-21T10:31:26;10.93;;;3.78;;
27225;SDS011;14732;51.074;3.788;2023-11-21T10:33:52;8.20;;;4.18;;
27225;SDS011;14732;51.074;3.788;2023-11-21T10:36:27;11.02;;;5.47;;
27225;SDS011;14732;51.074;3.788;2023-11-21T10:38:53;8.27;;;4.28;;
27225;SDS011;14732;51.074;3.788;2023-11-21T10:41:22;9.13;;;3.42;;
27225;SDS011;14732;51.074;3.788;2023-11-21T10:43:48;15.85;;;3.75;;
27225;SDS011;14732;51.074;3.788;2023-11-21T10:46:14;9.77;;;3.10;;
27225;SDS011;14732;51.074;3.788;2023-11-21T10:48:43;8.77;;;3.03;;
27225;SDS011;14732;51.074;3.788;2023-11-21T10:51:09;7.88;;;3.20;;
27225;SDS011;14732;51.074;3.788;2023-11-21T10:53:41;9.88;;;2.63;;
27225;SDS011;14732;51.074;3.788;2023-11-21T10:56:08;9.00;;;3.35;;
27225;SDS011;14732;51.074;3.788;2023-11-21T10:58:38;8.93;;;2.72;;
27225;SDS011;14732;51.074;3.788;2023-11-21T11:01:05;8.10;;;2.63;;
27225;SDS011;14732;51.074;3.788;2023-11-21T11:03:32;10.60;;;3.40;;
27225;SDS011;14732;51.074;3.788;2023-11-21T11:06:02;7.38;;;2.60;;
27225;SDS011;14732;51.074;3.788;2023-11-21T11:08:29;10.02;;;2.08;;
27225;SDS011;14732;51.074;3.788;2023-11-21T11:10:56;6.53;;;2.10;;
27225;SDS011;14732;51.074;3.788;2023-11-21T11:13:23;7.78;;;2.72;;
27225;SDS011;14732;51.074;3.788;2023-11-21T11:15:49;17.45;;;3.53;;
27225;SDS011;14732;51.074;3.788;2023-11-21T11:18:15;12.85;;;3.28;;
27225;SDS011;14732;51.074;3.788;2023-11-21T11:20:42;8.27;;;2.67;;
27225;SDS011;14732;51.074;3.788;2023-11-21T11:36:55;12.32;;;2.13;;
27225;SDS011;14732;51.074;3.788;2023-11-21T11:39:29;7.85;;;2.17;;
27225;SDS011;14732;51.074;3.788;2023-11-21T11:41:57;10.35;;;2.83;;
27225;SDS011;14732;51.074;3.788;2023-11-21T11:50:01;7.80;;;2.45;;
27225;SDS011;14732;51.074;3.788;2023-11-21T11:52:51;11.30;;;2.28;;
27225;SDS011;14732;51.074;3.788;2023-11-21T11:55:20;7.43;;;2.20;;
27225;SDS011;14732;51.074;3.788;2023-11-21T11:57:47;11.60;;;2.40;;
27225;SDS011;14732;51.074;3.788;2023-11-21T12:00:22;9.32;;;2.67;;
27225;SDS011;14732;51.074;3.788;2023-11-21T12:03:10;9.82;;;2.35;;
27225;SDS011;14732;51.074;3.788;2023-11-21T12:05:35;8.18;;;1.75;;
27225;SDS011;14732;51.074;3.788;2023-11-21T12:08:04;15.60;;;4.50;;
27225;SDS011;14732;51.074;3.788;2023-11-21T12:10:35;8.05;;;2.47;;
27225;SDS011;14732;51.074;3.788;2023-11-21T12:13:07;9.75;;;3.28;;
27225;SDS011;14732;51.074;3.788;2023-11-21T12:15:38;5.35;;;2.47;;
27225;SDS011;14732;51.074;3.788;2023-11-21T12:18:05;6.55;;;2.28;;
27225;SDS011;14732;51.074;3.788;2023-11-21T12:20:31;5.57;;;1.92;;
27225;SDS011;14732;51.074;3.788;2023-11-21T12:23:03;7.10;;;2.00;;
27225;SDS011;14732;51.074;3.788;2023-11-21T12:25:30;7.00;;;2.13;;
27225;SDS011;14732;51.074;3.788;2023-11-21T12:28:01;3.38;;;1.58;;
27225;SDS011;14732;51.074;3.788;2023-11-21T12:30:32;11.52;;;1.90;;
27225;SDS011;14732;51.074;3.788;2023-11-21T12:33:00;9.30;;;2.35;;
27225;SDS011;14732;51.074;3.788;2023-11-21T12:35:31;10.15;;;2.60;;
27225;SDS011;14732;51.074;3.788;2023-11-21T12:38:02;8.07;;;2.65;;
27225;SDS011;14732;51.074;3.788;2023-11-21T12:40:28;7.57;;;2.35;;
27225;SDS011;14732;51.074;3.788;2023-11-21T12:42:55;8.07;;;4.22;;
27225;SDS011;14732;51.074;3.788;2023-11-21T12:45:24;12.68;;;5.68;;
27225;SDS011;14732;51.074;3.788;2023-11-21T12:47:56;10.75;;;6.75;;
27225;SDS011;14732;51.074;3.788;2023-11-21T12:50:25;13.13;;;5.90;;
27225;SDS011;14732;51.074;3.788;2023-11-21T12:52:58;13.52;;;6.22;;
27225;SDS011;14732;51.074;3.788;2023-11-21T12:55:26;12.70;;;6.10;;
27225;SDS011;14732;51.074;3.788;2023-11-21T12:57:59;11.07;;;6.70;;
27225;SDS011;14732;51.074;3.788;2023-11-21T13:00:34;10.90;;;7.32;;
27225;SDS011;14732;51.074;3.788;2023-11-21T13:03:02;9.73;;;6.80;;
27225;SDS011;14732;51.074;3.788;2023-11-21T13:05:33;11.50;;;7.82;;
27225;SDS011;14732;51.074;3.788;2023-11-21T13:08:03;12.35;;;8.07;;
27225;SDS011;14732;51.074;3.788;2023-11-21T13:10:32;14.40;;;9.02;;
27225;SDS011;14732;51.074;3.788;2023-11-21T13:13:01;9.70;;;7.05;;
27225;SDS011;14732;51.074;3.788;2023-11-21T13:15:30;8.80;;;6.55;;
27225;SDS011;14732;51.074;3.788;2023-11-21T13:17:57;8.65;;;6.03;;
27225;SDS011;14732;51.074;3.788;2023-11-21T13:20:24;10.75;;;5.60;;
27225;SDS011;14732;51.074;3.788;2023-11-21T13:22:56;6.82;;;5.30;;
27225;SDS011;14732;51.074;3.788;2023-11-21T13:25:24;5.75;;;5.10;;
27225;SDS011;14732;51.074;3.788;2023-11-21T13:27:56;4.88;;;4.25;;
27225;SDS011;14732;51.074;3.788;2023-11-21T13:30:24;7.80;;;4.40;;
27225;SDS011;14732;51.074;3.788;2023-11-21T13:32:58;5.13;;;4.45;;
27225;SDS011;14732;51.074;3.788;2023-11-21T13:35:30;7.25;;;4.35;;
27225;SDS011;14732;51.074;3.788;2023-11-21T13:37:57;5.22;;;3.90;;
27225;SDS011;14732;51.074;3.788;2023-11-21T13:40:32;4.82;;;4.28;;
27225;SDS011;14732;51.074;3.788;2023-11-21T13:43:04;8.00;;;3.70;;
27225;SDS011;14732;51.074;3.788;2023-11-21T13:45:34;4.03;;;3.25;;
27225;SDS011;14732;51.074;3.788;2023-11-21T13:48:08;4.72;;;3.83;;
27225;SDS011;14732;51.074;3.788;2023-11-21T13:50:53;5.28;;;3.92;;
27225;SDS011;14732;51.074;3.788;2023-11-21T13:53:35;4.28;;;2.80;;
27225;SDS011;14732;51.074;3.788;2023-11-21T13:56:03;4.15;;;2.60;;
27225;SDS011;14732;51.074;3.788;2023-11-21T13:58:29;3.50;;;2.67;;
27225;SDS011;14732;51.074;3.788;2023-11-21T14:01:09;3.72;;;3.42;;
27225;SDS011;14732;51.074;3.788;2023-11-21T14:03:53;4.60;;;4.20;;
27225;SDS011;14732;51.074;3.788;2023-11-21T14:06:27;5.07;;;4.57;;
27225;SDS011;14732;51.074;3.788;2023-11-21T14:08:59;5.35;;;4.85;;
27225;SDS011;14732;51.074;3.788;2023-11-21T14:11:30;6.85;;;6.15;;
27225;SDS011;14732;51.074;3.788;2023-11-21T14:13:56;8.15;;;5.90;;
27225;SDS011;14732;51.074;3.788;2023-11-21T14:16:24;6.32;;;5.72;;
27225;SDS011;14732;51.074;3.788;2023-11-21T14:18:50;6.55;;;5.80;;
27225;SDS011;14732;51.074;3.788;2023-11-21T14:21:18;6.88;;;6.25;;
27225;SDS011;14732;51.074;3.788;2023-11-21T14:23:44;7.25;;;6.53;;
27225;SDS011;14732;51.074;3.788;2023-11-21T14:26:11;6.43;;;5.82;;
27225;SDS011;14732;51.074;3.788;2023-11-21T14:28:40;8.25;;;5.25;;
27225;SDS011;14732;51.074;3.788;2023-11-21T14:31:06;6.18;;;5.57;;
27225;SDS011;14732;51.074;3.788;2023-11-21T14:33:32;6.22;;;4.85;;
27225;SDS011;14732;51.074;3.788;2023-11-21T14:35:58;5.40;;;4.90;;
27225;SDS011;14732;51.074;3.788;2023-11-21T14:38:24;5.57;;;4.47;;
27225;SDS011;14732;51.074;3.788;2023-11-21T14:40:50;4.90;;;4.32;;
27225;SDS011;14732;51.074;3.788;2023-11-21T14:43:15;5.40;;;4.90;;
27225;SDS011;14732;51.074;3.788;2023-11-21T14:45:42;5.60;;;5.10;;
27225;SDS011;14732;51.074;3.788;2023-11-21T14:48:07;5.65;;;5.15;;
27225;SDS011;14732;51.074;3.788;2023-11-21T14:50:40;6.85;;;5.50;;
27225;SDS011;14732;51.074;3.788;2023-11-21T14:53:10;6.18;;;5.57;;